TimeCDT,TemperatureF,Dew PointF,Humidity,Sea Level PressureIn,VisibilityMPH,Wind Direction,Wind SpeedMPH,Gust SpeedMPH,PrecipitationIn,Events,Conditions,WindDirDegrees,DateUTC
12:15 AM,46.4,28.4,50,30.06,10.0,NE,4.6,-,N/A,,Clear,50,2013-03-28 05:15:00
12:35 AM,42.8,28.4,57,30.06,10.0,NE,6.9,-,N/A,,Clear,40,2013-03-28 05:35:00
12:55 AM,42.8,28.4,57,30.06,10.0,NE,6.9,-,N/A,,Clear,50,2013-03-28 05:55:00
1:15 AM,42.8,28.4,57,30.05,10.0,NE,5.8,-,N/A,,Clear,40,2013-03-28 06:15:00
1:35 AM,42.8,28.4,57,30.05,10.0,NE,6.9,-,N/A,,Clear,40,2013-03-28 06:35:00
1:55 AM,42.8,30.2,61,30.05,10.0,NE,8.1,-,N/A,,Clear,50,2013-03-28 06:55:00
2:15 AM,42.8,30.2,61,30.05,10.0,ENE,8.1,-,N/A,,Clear,60,2013-03-28 07:15:00
2:35 AM,42.8,30.2,61,30.05,10.0,NE,6.9,-,N/A,,Clear,50,2013-03-28 07:35:00
2:55 AM,42.8,30.2,61,30.05,10.0,ENE,5.8,-,N/A,,Clear,60,2013-03-28 07:55:00
3:15 AM,41.0,30.2,65,30.04,10.0,ENE,5.8,-,N/A,,Clear,60,2013-03-28 08:15:00
3:35 AM,41.0,32.0,70,30.04,10.0,ENE,5.8,-,N/A,,Clear,60,2013-03-28 08:35:00
3:55 AM,41.0,32.0,70,30.04,10.0,ENE,5.8,-,N/A,,Clear,60,2013-03-28 08:55:00
4:15 AM,39.2,32.0,75,30.04,10.0,NE,4.6,-,N/A,,Clear,40,2013-03-28 09:15:00
4:35 AM,39.2,32.0,75,30.04,10.0,NNE,4.6,-,N/A,,Clear,20,2013-03-28 09:35:00
4:55 AM,39.2,32.0,75,30.04,10.0,NNE,4.6,-,N/A,,Clear,20,2013-03-28 09:55:00
5:15 AM,39.2,32.0,75,30.04,10.0,Calm,Calm,-,N/A,,Clear,0,2013-03-28 10:15:00
5:35 AM,37.4,32.0,81,30.04,10.0,Calm,Calm,-,N/A,,Clear,0,2013-03-28 10:35:00
5:55 AM,37.4,32.0,81,30.04,10.0,Calm,Calm,-,N/A,,Clear,0,2013-03-28 10:55:00
6:15 AM,37.4,32.0,81,30.05,10.0,North,3.5,-,N/A,,Clear,360,2013-03-28 11:15:00
6:35 AM,35.6,32.0,87,30.05,10.0,North,4.6,-,N/A,,Clear,360,2013-03-28 11:35:00
7:15 AM,35.6,32.0,87,30.05,10.0,North,4.6,-,N/A,,Clear,10,2013-03-28 12:15:00
7:55 AM,35.6,32.0,87,30.07,10.0,NNW,5.8,-,N/A,,Clear,340,2013-03-28 12:55:00
8:15 AM,35.6,32.0,87,30.08,10.0,Calm,Calm,-,N/A,,Clear,0,2013-03-28 13:15:00
8:35 AM,37.4,32.0,81,30.09,10.0,North,3.5,-,N/A,,Clear,350,2013-03-28 13:35:00
8:55 AM,39.2,32.0,75,30.10,10.0,NNW,3.5,-,N/A,,Clear,330,2013-03-28 13:55:00
9:15 AM,41.0,32.0,70,30.10,10.0,Calm,Calm,-,N/A,,Clear,0,2013-03-28 14:15:00
9:35 AM,42.8,32.0,66,30.10,10.0,North,3.5,-,N/A,,Clear,10,2013-03-28 14:35:00
9:55 AM,42.8,32.0,66,30.11,10.0,NW,3.5,-,N/A,,Clear,320,2013-03-28 14:55:00
10:15 AM,46.4,33.8,62,30.11,10.0,NNW,4.6,-,N/A,,Clear,340,2013-03-28 15:15:00
11:15 AM,50.0,35.6,58,30.12,10.0,Calm,Calm,-,N/A,,Clear,0,2013-03-28 16:15:00
11:35 AM,50.0,35.6,58,30.11,10.0,North,3.5,-,N/A,,Clear,360,2013-03-28 16:35:00
11:55 AM,51.8,37.4,58,30.11,10.0,NNW,3.5,-,N/A,,Clear,330,2013-03-28 16:55:00
12:15 PM,53.6,37.4,54,30.10,10.0,Calm,Calm,-,N/A,,Clear,0,2013-03-28 17:15:00
12:35 PM,55.4,37.4,51,30.10,10.0,Calm,Calm,-,N/A,,Clear,0,2013-03-28 17:35:00
12:55 PM,59.0,37.4,45,30.08,10.0,ENE,4.6,-,N/A,,Clear,60,2013-03-28 17:55:00
1:15 PM,60.8,37.4,42,30.08,10.0,Calm,Calm,-,N/A,,Clear,0,2013-03-28 18:15:00
1:35 PM,60.8,37.4,42,30.07,10.0,NE,3.5,-,N/A,,Clear,40,2013-03-28 18:35:00
1:55 PM,62.6,37.4,39,30.06,10.0,ESE,3.5,-,N/A,,Clear,120,2013-03-28 18:55:00
2:15 PM,62.6,35.6,37,30.06,10.0,Calm,Calm,-,N/A,,Clear,0,2013-03-28 19:15:00
2:35 PM,64.4,35.6,34,30.05,10.0,Calm,Calm,-,N/A,,Clear,0,2013-03-28 19:35:00
2:55 PM,66.2,35.6,32,30.05,10.0,SSE,6.9,-,N/A,,Clear,150,2013-03-28 19:55:00
3:15 PM,66.2,35.6,32,30.04,10.0,South,4.6,-,N/A,,Clear,180,2013-03-28 20:15:00
3:35 PM,68.0,35.6,30,30.03,10.0,Calm,Calm,-,N/A,,Clear,0,2013-03-28 20:35:00
3:55 PM,68.0,35.6,30,30.03,10.0,Calm,Calm,-,N/A,,Clear,0,2013-03-28 20:55:00
4:15 PM,69.8,35.6,28,30.03,10.0,ESE,5.8,-,N/A,,Clear,120,2013-03-28 21:15:00
4:35 PM,69.8,35.6,28,30.01,10.0,East,3.5,-,N/A,,Clear,100,2013-03-28 21:35:00
4:55 PM,69.8,35.6,28,30.01,10.0,South,5.8,-,N/A,,Clear,170,2013-03-28 21:55:00
5:15 PM,69.8,35.6,28,30.01,10.0,Calm,Calm,-,N/A,,Clear,0,2013-03-28 22:15:00
5:35 PM,69.8,35.6,28,30.01,10.0,SSW,5.8,-,N/A,,Clear,210,2013-03-28 22:35:00
5:55 PM,69.8,35.6,28,30.01,10.0,Calm,Calm,-,N/A,,Clear,0,2013-03-28 22:55:00
6:15 PM,69.8,33.8,27,30.01,10.0,Calm,Calm,-,N/A,,Clear,0,2013-03-28 23:15:00
6:35 PM,69.8,33.8,27,30.01,10.0,Calm,Calm,-,N/A,,Clear,0,2013-03-28 23:35:00
6:55 PM,69.8,33.8,27,30.01,10.0,Calm,Calm,-,N/A,,Clear,0,2013-03-28 23:55:00
7:15 PM,69.8,33.8,27,30.02,10.0,Calm,Calm,-,N/A,,Clear,0,2013-03-29 00:15:00
7:35 PM,68.0,33.8,28,30.02,10.0,Calm,Calm,-,N/A,,Clear,0,2013-03-29 00:35:00
7:55 PM,66.2,33.8,30,30.03,10.0,Calm,Calm,-,N/A,,Clear,0,2013-03-29 00:55:00
8:15 PM,64.4,33.8,32,30.03,10.0,Calm,Calm,-,N/A,,Clear,0,2013-03-29 01:15:00
8:35 PM,62.6,33.8,34,30.03,10.0,ENE,4.6,-,N/A,,Clear,70,2013-03-29 01:35:00
8:55 PM,62.6,33.8,34,30.03,10.0,ENE,3.5,-,N/A,,Clear,60,2013-03-29 01:55:00
9:15 PM,59.0,33.8,39,30.04,10.0,ENE,5.8,-,N/A,,Clear,60,2013-03-29 02:15:00
9:35 PM,55.4,33.8,44,30.04,10.0,ENE,6.9,-,N/A,,Clear,60,2013-03-29 02:35:00
9:55 PM,55.4,35.6,47,30.05,10.0,ENE,3.5,-,N/A,,Clear,60,2013-03-29 02:55:00
10:15 PM,55.4,35.6,47,30.05,10.0,East,4.6,-,N/A,,Clear,80,2013-03-29 03:15:00
10:35 PM,53.6,37.4,54,30.05,10.0,East,5.8,-,N/A,,Clear,80,2013-03-29 03:35:00
10:55 PM,51.8,39.2,62,30.05,10.0,ENE,5.8,-,N/A,,Clear,70,2013-03-29 03:55:00
11:15 PM,51.8,39.2,62,30.06,10.0,East,4.6,-,N/A,,Clear,80,2013-03-29 04:15:00
11:55 PM,51.8,41.0,67,30.06,10.0,East,3.5,-,N/A,,Clear,90,2013-03-29 04:55:00